Time;durP1;ratioP1;P1;durP2;ratioP2;P2;SDS_P1;SDS_P2;PMS_P1;PMS_P2;Temp;Humidity;BMP_temperature;BMP_pressure;BME280_temperature;BME280_humidity;BME280_pressure;Samples;Min_cycle;Max_cycle;Signal;HPM_P1;HPM_P2
2022/07/25 00:00:08;;;;;;;;;;;;;;;;;;1040240;28;3864;-56
2022/07/25 00:00:58;;;;;;;;;;;;;;;;;;1038268;28;4173;-59
2022/07/25 00:01:28;;;;;;;;;;;;;;;;;;1039860;28;3783;-59
2022/07/25 00:01:59;;;;;;;;;;;;;;;;;;1040368;28;4025;-58
2022/07/25 00:02:29;;;;;;;;;;;;;;;;;;1041000;28;3884;-56
2022/07/25 00:02:59;;;;;;;;;;;;;;;;;;1040983;28;3619;-57
2022/07/25 00:03:29;;;;;;;;;;;;;;;;;;1037924;28;3926;-54
2022/07/25 00:04:00;;;;;;;;;;;;;;;;;;1041418;28;3907;-56
2022/07/25 00:04:30;;;;;;;;;;;;;;;;;;1040444;28;3892;-57
2022/07/25 00:05:01;;;;;;;;;;;;;;;;;;1041163;28;2328;-57
2022/07/25 00:05:31;;;;;;;;;;;;;;;;;;1040464;28;3785;-57
2022/07/25 00:06:01;;;;;;;;;;;;;;;;;;1041251;28;3882;-53
2022/07/25 00:06:31;;;;;;;;;;;;;;;;;;1040594;28;4461;-54
2022/07/25 00:07:02;;;;;;;;;;;;;;;;;;1041225;28;2371;-59
2022/07/25 00:07:32;;;;;;;;;;;;;;;;;;1040845;28;4295;-55
2022/07/25 00:08:02;;;;;;;;;;;;;;;;;;1040419;28;2969;-56
2022/07/25 00:08:33;;;;;;;;;;;;;;;;;;1044193;28;3849;-56
2022/07/25 00:09:03;;;;;;;;;;;;;;;;;;1044287;28;2875;-53
2022/07/25 00:09:33;;;;;;;;;;;;;;;;;;1042056;28;3831;-58
2022/07/25 00:10:04;;;;;;;;;;;;;;;;;;1043393;28;2864;-54
2022/07/25 00:10:34;;;;;;;;;;;;;;;;;;1040221;28;4346;-53
2022/07/25 00:11:04;;;;;;;;;;;;;;;;;;1046054;28;2355;-54
2022/07/25 00:11:35;;;;;;;;;;;;;;;;;;1043437;28;4030;-56
2022/07/25 00:12:05;;;;;;;;;;;;;;;;;;1044953;28;3054;-56
2022/07/25 00:12:36;;;;;;;;;;;;;;;;;;1045379;28;3815;-55
2022/07/25 00:13:06;;;;;;;;;;;;;;;;;;1040981;28;3827;-54
2022/07/25 00:13:36;;;;;;;;;;;;;;;;;;1045186;28;2439;-58
2022/07/25 00:14:07;;;;;;;;;;;;;;;;;;1040709;28;4015;-55
2022/07/25 00:14:37;;;;;;;;;;;;;;;;;;1042515;28;1845;-57
2022/07/25 00:15:07;;;;;;;;;;;;;;;;;;1040264;28;3978;-55
2022/07/25 00:15:38;;;;;;;;;;;;;;;;;;1042307;28;2869;-57
2022/07/25 00:16:08;;;;;;;;;;;;;;;;;;1039995;28;4620;-54
2022/07/25 00:16:39;;;;;;;;;;;;;;;;;;1042124;28;3336;-54
2022/07/25 00:17:09;;;;;;;;;;;;;;;;;;1039687;28;4072;-57
2022/07/25 00:17:40;;;;;;;;;;;;;;;;;;1040431;28;2955;-56
2022/07/25 00:18:10;;;;;;;;;;;;;;;;;;1038797;28;3851;-55
2022/07/25 00:18:41;;;;;;;;;;;;;;;;;;1041671;28;1680;-56
2022/07/25 00:19:11;;;;;;;;;;;;;;;;;;1039829;28;4079;-56
2022/07/25 00:19:41;;;;;;;;;;;;;;;;;;1040336;28;3824;-58
2022/07/25 00:20:12;;;;;;;;;;;;;;;;;;1038458;28;4456;-57
2022/07/25 00:20:42;;;;;;;;;;;;;;;;;;1039660;28;2828;-58
2022/07/25 00:21:12;;;;;;;;;;;;;;;;;;1038732;28;4002;-54
2022/07/25 00:21:42;;;;;;;;;;;;;;;;;;1039879;28;3787;-53
2022/07/25 00:22:13;;;;;;;;;;;;;;;;;;1038652;28;3888;-57
2022/07/25 00:22:43;;;;;;;;;;;;;;;;;;1045224;28;2972;-56
2022/07/25 00:23:13;;;;;;;;;;;;;;;;;;1045319;28;3838;-56
2022/07/25 00:23:43;;;;;;;;;;;;;;;;;;1039518;28;2948;-56
2022/07/25 00:24:14;;;;;;;;;;;;;;;;;;1040837;28;3997;-53
2022/07/25 00:24:44;;;;;;;;;;;;;;;;;;1041872;28;2316;-53
2022/07/25 00:25:15;;;;;;;;;;;;;;;;;;1041181;28;4046;-56
2022/07/25 00:25:46;;;;;;;;;;;;;;;;;;1040191;28;2553;-53
2022/07/25 00:26:16;;;;;;;;;;;;;;;;;;1037363;28;3996;-56
2022/07/25 00:26:46;;;;;;;;;;;;;;;;;;1037350;28;2401;-58
2022/07/25 00:27:16;;;;;;;;;;;;;;;;;;1036762;28;4422;-56
2022/07/25 00:27:46;;;;;;;;;;;;;;;;;;1040530;28;3557;-57
2022/07/25 00:28:17;;;;;;;;;;;;;;;;;;1041711;28;3921;-55
2022/07/25 00:28:47;;;;;;;;;;;;;;;;;;1040250;28;2293;-55
2022/07/25 00:29:17;;;;;;;;;;;;;;;;;;1041256;28;3885;-55
2022/07/25 00:29:48;;;;;;;;;;;;;;;;;;1041270;28;2393;-53
2022/07/25 00:30:18;;;;;;;;;;;;;;;;;;1038305;28;4544;-53
2022/07/25 00:30:48;;;;;;;;;;;;;;;;;;1039035;28;4169;-54
2022/07/25 00:31:19;;;;;;;;;;;;;;;;;;1040588;28;3876;-58
2022/07/25 00:31:49;;;;;;;;;;;;;;;;;;1041098;28;2425;-56
2022/07/25 00:32:19;;;;;;;;;;;;;;;;;;1038114;28;3856;-59
2022/07/25 00:32:50;;;;;;;;;;;;;;;;;;1040054;28;2313;-55
2022/07/25 00:33:20;;;;;;;;;;;;;;;;;;1041110;28;3827;-56
2022/07/25 00:34:04;;;;;;;;;;;;;;;;;;1041365;28;3316;-55
2022/07/25 00:34:41;;;;;;;;;;;;;;;;;;1045458;28;3995;-57
2022/07/25 00:35:11;;;;;;;;;;;;;;;;;;1043223;28;3909;-54
2022/07/25 00:35:42;;;;;;;;;;;;;;;;;;1044728;28;3339;-55
2022/07/25 00:36:12;;;;;;;;;;;;;;;;;;1044733;28;3826;-53
2022/07/25 00:36:43;;;;;;;;;;;;;;;;;;1045558;28;2228;-55
2022/07/25 00:37:13;;;;;;;;;;;;;;;;;;1044413;28;4175;-54
2022/07/25 00:37:43;;;;;;;;;;;;;;;;;;1045658;28;2217;-58
2022/07/25 00:38:14;;;;;;;;;;;;;;;;;;1044186;28;3847;-53
2022/07/25 00:38:44;;;;;;;;;;;;;;;;;;1039966;28;2816;-56
2022/07/25 00:39:14;;;;;;;;;;;;;;;;;;1036147;28;3887;-57
2022/07/25 00:39:45;;;;;;;;;;;;;;;;;;1038189;28;2221;-53
2022/07/25 00:40:16;;;;;;;;;;;;;;;;;;1035070;28;4079;-56
2022/07/25 00:40:46;;;;;;;;;;;;;;;;;;1040603;28;2615;-53
2022/07/25 00:41:16;;;;;;;;;;;;;;;;;;1040976;28;4417;-57
2022/07/25 00:41:46;;;;;;;;;;;;;;;;;;1041916;28;2342;-52
2022/07/25 00:42:17;;;;;;;;;;;;;;;;;;1039371;28;3812;-54
2022/07/25 00:42:47;;;;;;;;;;;;;;;;;;1040718;28;3645;-54
2022/07/25 00:43:17;;;;;;;;;;;;;;;;;;1041502;28;4036;-56
2022/07/25 00:43:47;;;;;;;;;;;;;;;;;;1042075;28;2371;-57
2022/07/25 00:44:22;;;;;;;;;;;;;;;;;;1045027;28;3822;-55
2022/07/25 00:44:52;;;;;;;;;;;;;;;;;;1044266;28;3770;-54
2022/07/25 00:45:22;;;;;;;;;;;;;;;;;;1043845;28;3963;-56
2022/07/25 00:45:53;;;;;;;;;;;;;;;;;;1046180;28;2967;-55
2022/07/25 00:46:23;;;;;;;;;;;;;;;;;;1044817;28;4041;-57
2022/07/25 00:46:54;;;;;;;;;;;;;;;;;;1043309;28;3723;-56
2022/07/25 00:47:24;;;;;;;;;;;;;;;;;;1044420;28;3867;-54
2022/07/25 00:47:54;;;;;;;;;;;;;;;;;;1045313;28;2640;-54
2022/07/25 00:48:25;;;;;;;;;;;;;;;;;;1043733;28;3901;-57
2022/07/25 00:48:56;;;;;;;;;;;;;;;;;;1045167;28;3972;-54
2022/07/25 00:49:26;;;;;;;;;;;;;;;;;;1044794;28;3987;-56
2022/07/25 00:49:56;;;;;;;;;;;;;;;;;;1044783;28;2440;-57
2022/07/25 00:50:34;;;;;;;;;;;;;;;;;;1043144;28;4076;-54
2022/07/25 00:51:05;;;;;;;;;;;;;;;;;;1043908;28;3806;-57
2022/07/25 00:51:35;;;;;;;;;;;;;;;;;;1044052;28;3912;-56
2022/07/25 00:52:05;;;;;;;;;;;;;;;;;;1045295;28;2477;-52
2022/07/25 00:52:35;;;;;;;;;;;;;;;;;;1044330;28;3753;-53
2022/07/25 00:53:06;;;;;;;;;;;;;;;;;;1045222;28;2295;-52
2022/07/25 00:53:37;;;;;;;;;;;;;;;;;;1043887;28;3882;-56
2022/07/25 00:54:07;;;;;;;;;;;;;;;;;;1044436;28;4040;-53
2022/07/25 00:54:37;;;;;;;;;;;;;;;;;;1045276;28;2991;-55
2022/07/25 00:55:08;;;;;;;;;;;;;;;;;;1044337;28;3949;-57
2022/07/25 00:55:38;;;;;;;;;;;;;;;;;;1045953;28;1675;-51
2022/07/25 00:56:08;;;;;;;;;;;;;;;;;;1043588;28;4073;-54
2022/07/25 00:56:38;;;;;;;;;;;;;;;;;;1044307;28;3238;-56
2022/07/25 00:57:09;;;;;;;;;;;;;;;;;;1044572;28;4260;-57
2022/07/25 00:57:39;;;;;;;;;;;;;;;;;;1043602;28;3222;-55
2022/07/25 00:58:10;;;;;;;;;;;;;;;;;;1044085;28;4064;-58
2022/07/25 00:58:40;;;;;;;;;;;;;;;;;;1041549;28;2663;-54
2022/07/25 00:59:10;;;;;;;;;;;;;;;;;;1035865;28;4339;-55
2022/07/25 00:59:41;;;;;;;;;;;;;;;;;;1035962;28;3452;-55
2022/07/25 01:00:12;;;;;;;;;;;;;;;;;;1035059;28;3800;-56
2022/07/25 01:00:43;;;;;;;;;;;;;;;;;;1041469;28;3337;-55
2022/07/25 01:01:13;;;;;;;;;;;;;;;;;;1044741;28;4014;-54
2022/07/25 01:01:46;;;;;;;;;;;;;;;;;;1044610;28;3682;-55
2022/07/25 01:02:16;;;;;;;;;;;;;;;;;;1044354;28;4090;-56
2022/07/25 01:02:47;;;;;;;;;;;;;;;;;;1044529;28;2467;-54
2022/07/25 01:03:17;;;;;;;;;;;;;;;;;;1043422;28;4294;-57
2022/07/25 01:03:48;;;;;;;;;;;;;;;;;;1045188;28;3270;-56
2022/07/25 01:04:18;;;;;;;;;;;;;;;;;;1042650;28;3993;-55
2022/07/25 01:04:49;;;;;;;;;;;;;;;;;;1044851;28;2279;-55
2022/07/25 01:05:19;;;;;;;;;;;;;;;;;;1042803;28;4235;-54
2022/07/25 01:05:49;;;;;;;;;;;;;;;;;;1045338;28;3409;-56
2022/07/25 01:06:20;;;;;;;;;;;;;;;;;;1044109;28;3990;-54
2022/07/25 01:06:50;;;;;;;;;;;;;;;;;;1044672;28;2491;-53
2022/07/25 01:07:20;;;;;;;;;;;;;;;;;;1044585;28;3876;-58
2022/07/25 01:07:51;;;;;;;;;;;;;;;;;;1037839;28;3904;-54
2022/07/25 01:08:21;;;;;;;;;;;;;;;;;;1038435;28;3941;-54
2022/07/25 01:08:52;;;;;;;;;;;;;;;;;;1037277;28;3175;-54
2022/07/25 01:09:23;;;;;;;;;;;;;;;;;;1039017;28;4117;-54
2022/07/25 01:09:53;;;;;;;;;;;;;;;;;;1043926;28;2994;-56
2022/07/25 01:10:23;;;;;;;;;;;;;;;;;;1045718;28;4264;-54
2022/07/25 01:10:54;;;;;;;;;;;;;;;;;;1045555;28;2387;-57
2022/07/25 01:11:24;;;;;;;;;;;;;;;;;;1044456;28;4380;-56
2022/07/25 01:11:55;;;;;;;;;;;;;;;;;;1044520;28;3830;-55
2022/07/25 01:12:25;;;;;;;;;;;;;;;;;;1042249;28;5930;-53
2022/07/25 01:12:55;;;;;;;;;;;;;;;;;;1039586;28;3245;-53
2022/07/25 01:13:25;;;;;;;;;;;;;;;;;;1041281;28;4042;-53
2022/07/25 01:13:56;;;;;;;;;;;;;;;;;;1041433;28;3006;-56
2022/07/25 01:14:26;;;;;;;;;;;;;;;;;;1041934;28;4349;-55
2022/07/25 01:14:57;;;;;;;;;;;;;;;;;;1044320;28;3687;-56
2022/07/25 01:15:27;;;;;;;;;;;;;;;;;;1044166;28;3859;-55
2022/07/25 01:15:57;;;;;;;;;;;;;;;;;;1045227;28;2477;-54
2022/07/25 01:16:27;;;;;;;;;;;;;;;;;;1044381;28;4008;-51
2022/07/25 01:16:58;;;;;;;;;;;;;;;;;;1045362;28;3295;-55
2022/07/25 01:17:28;;;;;;;;;;;;;;;;;;1044129;28;4406;-56
2022/07/25 01:17:58;;;;;;;;;;;;;;;;;;1043171;28;2795;-55
2022/07/25 01:18:28;;;;;;;;;;;;;;;;;;1045597;28;3866;-55
2022/07/25 01:18:59;;;;;;;;;;;;;;;;;;1044892;28;2156;-54
2022/07/25 01:19:29;;;;;;;;;;;;;;;;;;1043308;28;4301;-52
2022/07/25 01:19:59;;;;;;;;;;;;;;;;;;1044483;28;3900;-55
2022/07/25 01:20:30;;;;;;;;;;;;;;;;;;1044377;28;4056;-57
2022/07/25 01:21:01;;;;;;;;;;;;;;;;;;1044161;28;3684;-56
2022/07/25 01:21:31;;;;;;;;;;;;;;;;;;1043396;28;3821;-56
2022/07/25 01:22:02;;;;;;;;;;;;;;;;;;1044523;28;3353;-55
2022/07/25 01:22:32;;;;;;;;;;;;;;;;;;1044266;28;3984;-56
2022/07/25 01:23:02;;;;;;;;;;;;;;;;;;1038796;28;3779;-58
2022/07/25 01:23:33;;;;;;;;;;;;;;;;;;1038391;28;3764;-53
2022/07/25 01:24:03;;;;;;;;;;;;;;;;;;1038884;28;3268;-58
2022/07/25 01:24:34;;;;;;;;;;;;;;;;;;1038309;28;3854;-59
2022/07/25 01:25:05;;;;;;;;;;;;;;;;;;1039525;28;3129;-57
2022/07/25 01:25:35;;;;;;;;;;;;;;;;;;1041212;28;4433;-58
2022/07/25 01:26:05;;;;;;;;;;;;;;;;;;1041119;28;3062;-56
2022/07/25 01:26:36;;;;;;;;;;;;;;;;;;1041857;28;3784;-56
2022/07/25 01:27:06;;;;;;;;;;;;;;;;;;1040415;28;4456;-58
2022/07/25 01:27:37;;;;;;;;;;;;;;;;;;1039784;28;3816;-53
2022/07/25 01:28:07;;;;;;;;;;;;;;;;;;1039274;28;4080;-52
2022/07/25 01:28:38;;;;;;;;;;;;;;;;;;1041668;28;2089;-54
2022/07/25 01:29:08;;;;;;;;;;;;;;;;;;1042783;28;4001;-53
2022/07/25 01:29:38;;;;;;;;;;;;;;;;;;1045143;28;3021;-56
2022/07/25 01:30:10;;;;;;;;;;;;;;;;;;1043016;28;4445;-56
2022/07/25 01:30:40;;;;;;;;;;;;;;;;;;1045563;28;2998;-56
2022/07/25 01:31:10;;;;;;;;;;;;;;;;;;1043568;28;3871;-55
2022/07/25 01:31:41;;;;;;;;;;;;;;;;;;1043748;28;2844;-57
2022/07/25 01:32:11;;;;;;;;;;;;;;;;;;1044519;28;4443;-54
2022/07/25 01:32:42;;;;;;;;;;;;;;;;;;1044758;28;2189;-57
2022/07/25 01:33:16;;;;;;;;;;;;;;;;;;1044811;28;3867;-55
2022/07/25 01:34:00;;;;;;;;;;;;;;;;;;1039348;28;3824;-56
2022/07/25 01:34:37;;;;;;;;;;;;;;;;;;1039311;28;4068;-55
2022/07/25 01:35:08;;;;;;;;;;;;;;;;;;1040471;28;4056;-54
2022/07/25 01:35:39;;;;;;;;;;;;;;;;;;1041259;28;2886;-58
2022/07/25 01:36:09;;;;;;;;;;;;;;;;;;1040763;28;3879;-54
2022/07/25 01:36:39;;;;;;;;;;;;;;;;;;1039843;28;2818;-56
2022/07/25 01:37:10;;;;;;;;;;;;;;;;;;1039902;28;3877;-56
2022/07/25 01:37:40;;;;;;;;;;;;;;;;;;1040144;28;2814;-55
2022/07/25 01:38:10;;;;;;;;;;;;;;;;;;1040221;28;3898;-54
2022/07/25 01:38:41;;;;;;;;;;;;;;;;;;1041862;28;2857;-54
2022/07/25 01:39:11;;;;;;;;;;;;;;;;;;1042937;28;3811;-56
2022/07/25 01:39:41;;;;;;;;;;;;;;;;;;1044479;28;3397;-57
2022/07/25 01:40:12;;;;;;;;;;;;;;;;;;1043117;28;3812;-55
2022/07/25 01:40:44;;;;;;;;;;;;;;;;;;1044482;28;2208;-57
2022/07/25 01:41:14;;;;;;;;;;;;;;;;;;1040480;28;3879;-54
2022/07/25 01:41:44;;;;;;;;;;;;;;;;;;1040631;28;2488;-57
2022/07/25 01:42:21;;;;;;;;;;;;;;;;;;1040517;28;4537;-55
2022/07/25 01:42:52;;;;;;;;;;;;;;;;;;1042103;28;2539;-57
2022/07/25 01:43:22;;;;;;;;;;;;;;;;;;1039398;28;3820;-54
2022/07/25 01:43:52;;;;;;;;;;;;;;;;;;1037500;28;3684;-54
2022/07/25 01:44:22;;;;;;;;;;;;;;;;;;1040395;28;4086;-56
2022/07/25 01:44:53;;;;;;;;;;;;;;;;;;1041579;28;2816;-55
2022/07/25 01:45:23;;;;;;;;;;;;;;;;;;1039777;28;3799;-55
2022/07/25 01:45:53;;;;;;;;;;;;;;;;;;1040649;28;3391;-55
2022/07/25 01:46:24;;;;;;;;;;;;;;;;;;1038745;28;4052;-56
2022/07/25 01:46:54;;;;;;;;;;;;;;;;;;1041386;28;3050;-56
2022/07/25 01:47:25;;;;;;;;;;;;;;;;;;1039904;28;3810;-54
2022/07/25 01:47:55;;;;;;;;;;;;;;;;;;1040095;28;3880;-54
2022/07/25 01:48:25;;;;;;;;;;;;;;;;;;1040604;28;3842;-53
2022/07/25 01:48:55;;;;;;;;;;;;;;;;;;1040737;28;3255;-55
2022/07/25 01:49:26;;;;;;;;;;;;;;;;;;1039739;28;3886;-56
2022/07/25 01:49:56;;;;;;;;;;;;;;;;;;1040948;28;2840;-56
2022/07/25 01:50:26;;;;;;;;;;;;;;;;;;1041281;28;4080;-55
2022/07/25 01:50:57;;;;;;;;;;;;;;;;;;1039842;28;3031;-57
2022/07/25 01:51:27;;;;;;;;;;;;;;;;;;1040506;28;4143;-57
2022/07/25 01:51:57;;;;;;;;;;;;;;;;;;1041341;28;3104;-58
2022/07/25 01:52:27;;;;;;;;;;;;;;;;;;1041101;28;4205;-57
2022/07/25 01:52:58;;;;;;;;;;;;;;;;;;1040266;28;2876;-57
2022/07/25 01:53:28;;;;;;;;;;;;;;;;;;1041336;28;4116;-57
2022/07/25 01:53:58;;;;;;;;;;;;;;;;;;1039716;28;2902;-55
2022/07/25 01:54:28;;;;;;;;;;;;;;;;;;1040943;28;3958;-56
2022/07/25 01:54:59;;;;;;;;;;;;;;;;;;1040851;28;3006;-55
2022/07/25 01:55:29;;;;;;;;;;;;;;;;;;1040102;28;4202;-53
2022/07/25 01:55:59;;;;;;;;;;;;;;;;;;1041449;28;3090;-59
2022/07/25 01:56:30;;;;;;;;;;;;;;;;;;1040870;28;4005;-56
2022/07/25 01:57:00;;;;;;;;;;;;;;;;;;1040942;28;3130;-53
2022/07/25 01:57:30;;;;;;;;;;;;;;;;;;1038592;28;4212;-58
2022/07/25 01:58:01;;;;;;;;;;;;;;;;;;1038904;28;3103;-58
2022/07/25 01:58:31;;;;;;;;;;;;;;;;;;1040198;28;3876;-57
2022/07/25 01:59:01;;;;;;;;;;;;;;;;;;1038817;28;3822;-57
2022/07/25 01:59:31;;;;;;;;;;;;;;;;;;1042157;28;3870;-54
2022/07/25 02:00:06;;;;;;;;;;;;;;;;;;1039882;28;2355;-56
2022/07/25 02:00:37;;;;;;;;;;;;;;;;;;1039840;28;4181;-57
2022/07/25 02:01:07;;;;;;;;;;;;;;;;;;1041089;28;3970;-55
2022/07/25 02:01:38;;;;;;;;;;;;;;;;;;1044588;28;2805;-56
2022/07/25 02:02:08;;;;;;;;;;;;;;;;;;1044579;28;4278;-59
2022/07/25 02:02:39;;;;;;;;;;;;;;;;;;1043727;28;2856;-56
2022/07/25 02:03:59;;;;;;;;;;;;;;;;;;1040447;28;3405;-57
2022/07/25 02:04:29;;;;;;;;;;;;;;;;;;1040787;28;4069;-53
2022/07/25 02:05:00;;;;;;;;;;;;;;;;;;1041266;28;2467;-58
2022/07/25 02:05:30;;;;;;;;;;;;;;;;;;1040825;28;4283;-52
2022/07/25 02:06:01;;;;;;;;;;;;;;;;;;1040582;28;3231;-52
2022/07/25 02:06:33;;;;;;;;;;;;;;;;;;1038352;28;3877;-57
2022/07/25 02:07:04;;;;;;;;;;;;;;;;;;1040891;28;2183;-56
2022/07/25 02:07:34;;;;;;;;;;;;;;;;;;1041349;28;4088;-58
2022/07/25 02:08:05;;;;;;;;;;;;;;;;;;1041575;28;2337;-55
2022/07/25 02:08:35;;;;;;;;;;;;;;;;;;1040587;28;3736;-53
2022/07/25 02:09:06;;;;;;;;;;;;;;;;;;1041912;28;2395;-55
2022/07/25 02:09:36;;;;;;;;;;;;;;;;;;1038642;28;3678;-57
2022/07/25 02:10:07;;;;;;;;;;;;;;;;;;1040070;28;4263;-54
2022/07/25 02:10:37;;;;;;;;;;;;;;;;;;1036379;28;2373;-56
2022/07/25 02:11:08;;;;;;;;;;;;;;;;;;1036685;28;4240;-54
2022/07/25 02:11:38;;;;;;;;;;;;;;;;;;1038937;28;2894;-54
2022/07/25 02:12:08;;;;;;;;;;;;;;;;;;1040479;28;4271;-57
2022/07/25 02:12:38;;;;;;;;;;;;;;;;;;1040126;28;4181;-55
2022/07/25 02:13:09;;;;;;;;;;;;;;;;;;1039695;28;3938;-54
2022/07/25 02:13:39;;;;;;;;;;;;;;;;;;1041154;28;2533;-56
2022/07/25 02:14:09;;;;;;;;;;;;;;;;;;1041292;28;3838;-53
2022/07/25 02:14:39;;;;;;;;;;;;;;;;;;1042687;28;3886;-56
2022/07/25 02:15:10;;;;;;;;;;;;;;;;;;1044169;28;3979;-54
2022/07/25 02:15:40;;;;;;;;;;;;;;;;;;1045479;28;2817;-54
2022/07/25 02:16:11;;;;;;;;;;;;;;;;;;1040388;28;4014;-53
2022/07/25 02:16:41;;;;;;;;;;;;;;;;;;1040326;28;5260;-56
2022/07/25 02:17:11;;;;;;;;;;;;;;;;;;1041595;28;4084;-53
2022/07/25 02:17:42;;;;;;;;;;;;;;;;;;1041949;28;1603;-53
2022/07/25 02:18:12;;;;;;;;;;;;;;;;;;1041077;28;4276;-58
2022/07/25 02:18:43;;;;;;;;;;;;;;;;;;1039760;28;3624;-57
2022/07/25 02:19:13;;;;;;;;;;;;;;;;;;1041393;28;4097;-54
2022/07/25 02:19:43;;;;;;;;;;;;;;;;;;1040477;28;3972;-58
2022/07/25 02:20:14;;;;;;;;;;;;;;;;;;1040775;28;3804;-57
2022/07/25 02:20:44;;;;;;;;;;;;;;;;;;1040520;28;2504;-59
2022/07/25 02:21:15;;;;;;;;;;;;;;;;;;1040944;28;3811;-59
2022/07/25 02:21:45;;;;;;;;;;;;;;;;;;1045772;28;2205;-54
2022/07/25 02:22:15;;;;;;;;;;;;;;;;;;1041195;28;4467;-55
2022/07/25 02:22:45;;;;;;;;;;;;;;;;;;1044970;28;3808;-55
2022/07/25 02:23:16;;;;;;;;;;;;;;;;;;1040399;28;4251;-57
2022/07/25 02:23:46;;;;;;;;;;;;;;;;;;1042216;28;2305;-58
2022/07/25 02:24:16;;;;;;;;;;;;;;;;;;1040909;28;4136;-54
2022/07/25 02:24:47;;;;;;;;;;;;;;;;;;1041211;28;2936;-57
2022/07/25 02:25:17;;;;;;;;;;;;;;;;;;1040354;28;4119;-55
2022/07/25 02:25:47;;;;;;;;;;;;;;;;;;1041525;28;3334;-57
2022/07/25 02:26:18;;;;;;;;;;;;;;;;;;1039180;28;3791;-53
2022/07/25 02:26:48;;;;;;;;;;;;;;;;;;1040929;28;3371;-55
2022/07/25 02:27:18;;;;;;;;;;;;;;;;;;1040073;28;3976;-55
2022/07/25 02:27:49;;;;;;;;;;;;;;;;;;1040886;28;3945;-53
2022/07/25 02:28:19;;;;;;;;;;;;;;;;;;1039927;28;3921;-56
2022/07/25 02:28:49;;;;;;;;;;;;;;;;;;1038354;28;6387;-55
2022/07/25 02:29:20;;;;;;;;;;;;;;;;;;1036399;28;4233;-58
2022/07/25 02:29:50;;;;;;;;;;;;;;;;;;1040866;28;3079;-55
2022/07/25 02:30:20;;;;;;;;;;;;;;;;;;1038536;28;4044;-56
2022/07/25 02:30:51;;;;;;;;;;;;;;;;;;1041156;28;3594;-56
2022/07/25 02:31:21;;;;;;;;;;;;;;;;;;1040664;28;4241;-55
2022/07/25 02:31:51;;;;;;;;;;;;;;;;;;1041078;28;2863;-56
2022/07/25 02:32:22;;;;;;;;;;;;;;;;;;1040478;28;3915;-55
2022/07/25 02:32:52;;;;;;;;;;;;;;;;;;1041143;28;3146;-55
2022/07/25 02:33:23;;;;;;;;;;;;;;;;;;1040633;28;4085;-51
2022/07/25 02:34:06;;;;;;;;;;;;;;;;;;1040527;28;3112;-56
2022/07/25 02:34:43;;;;;;;;;;;;;;;;;;1044413;28;3775;-52
2022/07/25 02:35:14;;;;;;;;;;;;;;;;;;1043920;28;4044;-55
2022/07/25 02:35:44;;;;;;;;;;;;;;;;;;1043013;28;3638;-57
2022/07/25 02:36:15;;;;;;;;;;;;;;;;;;1044650;28;3951;-54
2022/07/25 02:36:45;;;;;;;;;;;;;;;;;;1043369;28;3540;-58
2022/07/25 02:37:15;;;;;;;;;;;;;;;;;;1044766;28;3860;-55
2022/07/25 02:37:46;;;;;;;;;;;;;;;;;;1044950;28;1824;-55
2022/07/25 02:38:19;;;;;;;;;;;;;;;;;;1044510;28;3884;-56
2022/07/25 02:38:49;;;;;;;;;;;;;;;;;;1043425;28;2791;-52
2022/07/25 02:39:20;;;;;;;;;;;;;;;;;;1038221;28;4118;-57
2022/07/25 02:39:50;;;;;;;;;;;;;;;;;;1039296;28;3005;-57
2022/07/25 02:40:21;;;;;;;;;;;;;;;;;;1040303;28;4379;-58
2022/07/25 02:40:51;;;;;;;;;;;;;;;;;;1039293;28;3648;-58
2022/07/25 02:41:21;;;;;;;;;;;;;;;;;;1044839;28;4240;-55
2022/07/25 02:41:52;;;;;;;;;;;;;;;;;;1044094;28;3059;-54
2022/07/25 02:42:28;;;;;;;;;;;;;;;;;;1044828;28;4252;-57
2022/07/25 02:42:59;;;;;;;;;;;;;;;;;;1040826;28;2523;-56
2022/07/25 02:43:29;;;;;;;;;;;;;;;;;;1040861;28;3935;-55
2022/07/25 02:44:00;;;;;;;;;;;;;;;;;;1038708;28;3457;-54
2022/07/25 02:44:30;;;;;;;;;;;;;;;;;;1041282;28;3921;-58
2022/07/25 02:45:01;;;;;;;;;;;;;;;;;;1043502;28;2461;-55
2022/07/25 02:45:31;;;;;;;;;;;;;;;;;;1044059;28;4669;-52
2022/07/25 02:46:01;;;;;;;;;;;;;;;;;;1043049;28;3728;-55
2022/07/25 02:46:32;;;;;;;;;;;;;;;;;;1044845;28;4205;-52
2022/07/25 02:47:02;;;;;;;;;;;;;;;;;;1040914;28;2937;-56
2022/07/25 02:47:32;;;;;;;;;;;;;;;;;;1040395;28;3761;-55
2022/07/25 02:48:03;;;;;;;;;;;;;;;;;;1041236;28;2465;-54
2022/07/25 02:48:33;;;;;;;;;;;;;;;;;;1041676;28;3801;-58
2022/07/25 02:49:04;;;;;;;;;;;;;;;;;;1043548;28;3137;-56
2022/07/25 02:49:34;;;;;;;;;;;;;;;;;;1043688;28;3769;-55
2022/07/25 02:50:05;;;;;;;;;;;;;;;;;;1045100;28;2409;-54
2022/07/25 02:50:35;;;;;;;;;;;;;;;;;;1044072;28;3874;-56
2022/07/25 02:51:06;;;;;;;;;;;;;;;;;;1043093;28;3686;-53
2022/07/25 02:51:36;;;;;;;;;;;;;;;;;;1043991;28;3840;-56
2022/07/25 02:52:06;;;;;;;;;;;;;;;;;;1043614;28;3857;-52
2022/07/25 02:52:36;;;;;;;;;;;;;;;;;;1045079;28;1944;-56
2022/07/25 02:53:07;;;;;;;;;;;;;;;;;;1043533;28;3824;-56
2022/07/25 02:53:37;;;;;;;;;;;;;;;;;;1044293;28;3822;-58
2022/07/25 02:54:07;;;;;;;;;;;;;;;;;;1044076;28;4080;-56
2022/07/25 02:54:37;;;;;;;;;;;;;;;;;;1044996;28;2687;-55
2022/07/25 02:55:08;;;;;;;;;;;;;;;;;;1044484;28;3963;-56
2022/07/25 02:55:38;;;;;;;;;;;;;;;;;;1044634;28;2945;-56
2022/07/25 02:56:09;;;;;;;;;;;;;;;;;;1043041;28;3884;-56
2022/07/25 02:56:39;;;;;;;;;;;;;;;;;;1043646;28;2345;-56
2022/07/25 02:57:09;;;;;;;;;;;;;;;;;;1044573;28;4057;-54
2022/07/25 02:57:39;;;;;;;;;;;;;;;;;;1044100;28;3696;-52
2022/07/25 02:58:10;;;;;;;;;;;;;;;;;;1044596;28;4429;-52
2022/07/25 02:58:40;;;;;;;;;;;;;;;;;;1045345;28;1662;-56
2022/07/25 02:59:10;;;;;;;;;;;;;;;;;;1042870;28;3978;-59
2022/07/25 02:59:40;;;;;;;;;;;;;;;;;;1043951;28;2738;-54
2022/07/25 03:00:11;;;;;;;;;;;;;;;;;;1044039;28;3797;-56
2022/07/25 03:00:42;;;;;;;;;;;;;;;;;;1043449;28;3408;-53
2022/07/25 03:01:12;;;;;;;;;;;;;;;;;;1045373;28;4115;-55
2022/07/25 03:01:42;;;;;;;;;;;;;;;;;;1043231;28;2297;-52
2022/07/25 03:02:12;;;;;;;;;;;;;;;;;;1043953;28;4433;-55
2022/07/25 03:02:43;;;;;;;;;;;;;;;;;;1043386;28;2641;-55
2022/07/25 03:03:13;;;;;;;;;;;;;;;;;;1042606;28;3882;-53
2022/07/25 03:03:43;;;;;;;;;;;;;;;;;;1044980;28;2974;-57
2022/07/25 03:04:14;;;;;;;;;;;;;;;;;;1043121;28;3855;-57
2022/07/25 03:04:44;;;;;;;;;;;;;;;;;;1044654;28;2643;-57
2022/07/25 03:05:15;;;;;;;;;;;;;;;;;;1043792;28;4407;-55
2022/07/25 03:05:45;;;;;;;;;;;;;;;;;;1043992;28;2953;-57
2022/07/25 03:06:16;;;;;;;;;;;;;;;;;;1043652;28;3800;-56
2022/07/25 03:06:46;;;;;;;;;;;;;;;;;;1043587;28;2679;-57
2022/07/25 03:07:16;;;;;;;;;;;;;;;;;;1039807;28;5572;-55
2022/07/25 03:07:47;;;;;;;;;;;;;;;;;;1039786;28;2930;-51
2022/07/25 03:08:17;;;;;;;;;;;;;;;;;;1039029;28;3823;-57
2022/07/25 03:08:47;;;;;;;;;;;;;;;;;;1039342;28;2897;-54
2022/07/25 03:09:18;;;;;;;;;;;;;;;;;;1043899;28;3981;-57
2022/07/25 03:09:48;;;;;;;;;;;;;;;;;;1043842;28;3684;-57
2022/07/25 03:10:18;;;;;;;;;;;;;;;;;;1040249;28;3891;-54
2022/07/25 03:10:49;;;;;;;;;;;;;;;;;;1040874;28;2862;-58
2022/07/25 03:11:19;;;;;;;;;;;;;;;;;;1041717;28;4003;-55
2022/07/25 03:11:50;;;;;;;;;;;;;;;;;;1040595;28;3581;-55
2022/07/25 03:12:21;;;;;;;;;;;;;;;;;;1042661;28;3853;-56
2022/07/25 03:12:51;;;;;;;;;;;;;;;;;;1044063;28;2362;-55
2022/07/25 03:13:21;;;;;;;;;;;;;;;;;;1044381;28;4028;-57
2022/07/25 03:13:52;;;;;;;;;;;;;;;;;;1042983;28;2861;-57
2022/07/25 03:14:22;;;;;;;;;;;;;;;;;;1041067;28;4464;-54
2022/07/25 03:14:52;;;;;;;;;;;;;;;;;;1044490;28;2372;-59
2022/07/25 03:15:22;;;;;;;;;;;;;;;;;;1043246;28;4071;-57
2022/07/25 03:15:52;;;;;;;;;;;;;;;;;;1044607;28;2875;-56
2022/07/25 03:16:23;;;;;;;;;;;;;;;;;;1042722;28;3918;-52
2022/07/25 03:16:53;;;;;;;;;;;;;;;;;;1044791;28;2340;-55
2022/07/25 03:17:24;;;;;;;;;;;;;;;;;;1044135;28;4212;-54
2022/07/25 03:17:54;;;;;;;;;;;;;;;;;;1041387;28;2393;-53
2022/07/25 03:18:24;;;;;;;;;;;;;;;;;;1035645;28;4144;-54
2022/07/25 03:18:54;;;;;;;;;;;;;;;;;;1037182;28;2404;-57
2022/07/25 03:19:25;;;;;;;;;;;;;;;;;;1030262;28;3847;-55
2022/07/25 03:19:55;;;;;;;;;;;;;;;;;;1037832;28;2059;-56
2022/07/25 03:20:25;;;;;;;;;;;;;;;;;;1038926;28;3965;-54
2022/07/25 03:20:56;;;;;;;;;;;;;;;;;;1039733;28;2612;-57
2022/07/25 03:21:26;;;;;;;;;;;;;;;;;;1044234;28;4053;-57
2022/07/25 03:21:56;;;;;;;;;;;;;;;;;;1044232;28;3175;-55
2022/07/25 03:22:26;;;;;;;;;;;;;;;;;;1042965;28;4037;-58
2022/07/25 03:22:57;;;;;;;;;;;;;;;;;;1045375;28;3276;-57
2022/07/25 03:23:27;;;;;;;;;;;;;;;;;;1043416;28;4409;-57
2022/07/25 03:23:57;;;;;;;;;;;;;;;;;;1045215;28;2367;-55
2022/07/25 03:24:27;;;;;;;;;;;;;;;;;;1044141;28;4307;-53
2022/07/25 03:24:58;;;;;;;;;;;;;;;;;;1044791;28;2423;-57
2022/07/25 03:25:28;;;;;;;;;;;;;;;;;;1044499;28;4346;-58
2022/07/25 03:25:59;;;;;;;;;;;;;;;;;;1040892;28;2706;-55
2022/07/25 03:26:29;;;;;;;;;;;;;;;;;;1039750;28;4272;-52
2022/07/25 03:26:59;;;;;;;;;;;;;;;;;;1042190;28;2742;-58
2022/07/25 03:27:29;;;;;;;;;;;;;;;;;;1041294;28;4244;-58
2022/07/25 03:28:00;;;;;;;;;;;;;;;;;;1043971;28;2950;-58
2022/07/25 03:28:30;;;;;;;;;;;;;;;;;;1039505;28;3817;-58
2022/07/25 03:29:01;;;;;;;;;;;;;;;;;;1039750;28;3052;-56
2022/07/25 03:29:31;;;;;;;;;;;;;;;;;;1033538;28;3868;-53
2022/07/25 03:30:02;;;;;;;;;;;;;;;;;;1036527;28;2476;-57
2022/07/25 03:30:32;;;;;;;;;;;;;;;;;;1039130;28;4730;-58
2022/07/25 03:31:02;;;;;;;;;;;;;;;;;;1045183;28;3188;-54
2022/07/25 03:31:33;;;;;;;;;;;;;;;;;;1044088;28;3784;-55
2022/07/25 03:32:03;;;;;;;;;;;;;;;;;;1044022;28;2782;-56
2022/07/25 03:32:34;;;;;;;;;;;;;;;;;;1044340;28;3924;-53
2022/07/25 03:33:04;;;;;;;;;;;;;;;;;;1042576;28;3250;-57
2022/07/25 03:33:34;;;;;;;;;;;;;;;;;;1040398;28;3851;-53